sensor_id;sensor_type;location;lat;lon;timestamp;P1;durP1;ratioP1;P2;durP2;ratioP2
23252;SDS011;11795;47.054;15.408;2023-05-18T00:00:00;0.5;;;0.4;;
23252;SDS011;11795;47.054;15.408;2023-05-18T00:02:00;0.5;;;0.4;;
23252;SDS011;11795;47.054;15.408;2023-05-18T00:04:00;0.8;;;0.3;;
23252;SDS011;11795;47.054;15.408;2023-05-18T00:06:03;0.8;;;0.3;;
23252;SDS011;11795;47.054;15.408;2023-05-18T00:08:00;0.6;;;0.3;;
23252;SDS011;11795;47.054;15.408;2023-05-18T00:10:00;0.6;;;0.3;;
23252;SDS011;11795;47.054;15.408;2023-05-18T00:12:00;0.6;;;0.3;;
23252;SDS011;11795;47.054;15.408;2023-05-18T00:14:02;0.6;;;0.3;;
23252;SDS011;11795;47.054;15.408;2023-05-18T00:16:00;0.6;;;0.3;;
23252;SDS011;11795;47.054;15.408;2023-05-18T00:18:00;0.3;;;0.3;;
23252;SDS011;11795;47.054;15.408;2023-05-18T00:20:01;0.3;;;0.3;;
23252;SDS011;11795;47.054;15.408;2023-05-18T00:22:01;0.3;;;0.3;;
23252;SDS011;11795;47.054;15.408;2023-05-18T00:24:00;0.5;;;0.3;;
23252;SDS011;11795;47.054;15.408;2023-05-18T00:26:01;0.5;;;0.3;;
23252;SDS011;11795;47.054;15.408;2023-05-18T00:28:00;0.5;;;0.3;;
23252;SDS011;11795;47.054;15.408;2023-05-18T00:30:00;0.5;;;0.3;;
23252;SDS011;11795;47.054;15.408;2023-05-18T00:32:00;0.5;;;0.3;;
23252;SDS011;11795;47.054;15.408;2023-05-18T00:34:00;0.4;;;0.3;;
23252;SDS011;11795;47.054;15.408;2023-05-18T00:36:00;0.4;;;0.3;;
23252;SDS011;11795;47.054;15.408;2023-05-18T00:38:00;0.5;;;0.4;;
23252;SDS011;11795;47.054;15.408;2023-05-18T00:40:00;0.5;;;0.4;;
23252;SDS011;11795;47.054;15.408;2023-05-18T00:42:00;0.5;;;0.4;;
23252;SDS011;11795;47.054;15.408;2023-05-18T00:44:00;0.5;;;0.3;;
23252;SDS011;11795;47.054;15.408;2023-05-18T00:46:00;0.5;;;0.3;;
23252;SDS011;11795;47.054;15.408;2023-05-18T00:48:00;0.5;;;0.4;;
23252;SDS011;11795;47.054;15.408;2023-05-18T00:50:00;0.5;;;0.4;;
23252;SDS011;11795;47.054;15.408;2023-05-18T00:52:00;0.5;;;0.4;;
23252;SDS011;11795;47.054;15.408;2023-05-18T00:54:00;1.3;;;0.4;;
23252;SDS011;11795;47.054;15.408;2023-05-18T00:56:00;1.3;;;0.4;;
23252;SDS011;11795;47.054;15.408;2023-05-18T00:58:01;1.0;;;0.5;;
23252;SDS011;11795;47.054;15.408;2023-05-18T01:00:00;1.0;;;0.5;;
23252;SDS011;11795;47.054;15.408;2023-05-18T01:02:00;1.0;;;0.5;;
23252;SDS011;11795;47.054;15.408;2023-05-18T01:04:01;0.8;;;0.5;;
23252;SDS011;11795;47.054;15.408;2023-05-18T01:06:00;0.8;;;0.5;;
23252;SDS011;11795;47.054;15.408;2023-05-18T01:08:02;0.6;;;0.5;;
23252;SDS011;11795;47.054;15.408;2023-05-18T01:10:00;0.6;;;0.5;;
23252;SDS011;11795;47.054;15.408;2023-05-18T01:12:02;0.6;;;0.5;;
23252;SDS011;11795;47.054;15.408;2023-05-18T01:14:02;0.4;;;0.4;;
23252;SDS011;11795;47.054;15.408;2023-05-18T01:16:00;0.4;;;0.4;;
23252;SDS011;11795;47.054;15.408;2023-05-18T01:18:07;1.1;;;0.5;;
23252;SDS011;11795;47.054;15.408;2023-05-18T01:20:09;1.1;;;0.5;;
23252;SDS011;11795;47.054;15.408;2023-05-18T01:22:05;1.1;;;0.5;;
23252;SDS011;11795;47.054;15.408;2023-05-18T01:24:03;0.7;;;0.6;;
23252;SDS011;11795;47.054;15.408;2023-05-18T01:28:07;0.6;;;0.5;;
23252;SDS011;11795;47.054;15.408;2023-05-18T01:30:00;0.6;;;0.5;;
23252;SDS011;11795;47.054;15.408;2023-05-18T01:32:00;0.6;;;0.5;;
23252;SDS011;11795;47.054;15.408;2023-05-18T01:34:00;0.6;;;0.5;;
23252;SDS011;11795;47.054;15.408;2023-05-18T01:36:00;0.6;;;0.5;;
23252;SDS011;11795;47.054;15.408;2023-05-18T01:38:00;1.0;;;0.6;;
23252;SDS011;11795;47.054;15.408;2023-05-18T01:40:00;1.0;;;0.6;;
23252;SDS011;11795;47.054;15.408;2023-05-18T01:42:04;1.0;;;0.6;;
23252;SDS011;11795;47.054;15.408;2023-05-18T01:44:03;0.6;;;0.6;;
23252;SDS011;11795;47.054;15.408;2023-05-18T01:46:02;0.6;;;0.6;;
23252;SDS011;11795;47.054;15.408;2023-05-18T01:48:00;0.7;;;0.5;;
23252;SDS011;11795;47.054;15.408;2023-05-18T01:50:01;0.7;;;0.5;;
23252;SDS011;11795;47.054;15.408;2023-05-18T01:52:01;0.7;;;0.5;;
23252;SDS011;11795;47.054;15.408;2023-05-18T01:54:02;0.7;;;0.6;;
23252;SDS011;11795;47.054;15.408;2023-05-18T01:56:00;0.7;;;0.6;;
23252;SDS011;11795;47.054;15.408;2023-05-18T01:58:00;0.6;;;0.5;;
23252;SDS011;11795;47.054;15.408;2023-05-18T02:00:00;0.6;;;0.5;;
23252;SDS011;11795;47.054;15.408;2023-05-18T02:02:00;0.6;;;0.5;;
23252;SDS011;11795;47.054;15.408;2023-05-18T02:04:00;1.0;;;0.6;;
23252;SDS011;11795;47.054;15.408;2023-05-18T02:06:00;1.0;;;0.6;;
23252;SDS011;11795;47.054;15.408;2023-05-18T02:08:00;1.8;;;0.7;;
23252;SDS011;11795;47.054;15.408;2023-05-18T02:10:00;1.8;;;0.7;;
23252;SDS011;11795;47.054;15.408;2023-05-18T02:12:00;1.8;;;0.7;;
23252;SDS011;11795;47.054;15.408;2023-05-18T02:14:00;0.7;;;0.7;;
23252;SDS011;11795;47.054;15.408;2023-05-18T02:16:01;0.7;;;0.7;;
23252;SDS011;11795;47.054;15.408;2023-05-18T02:18:00;1.0;;;0.8;;
23252;SDS011;11795;47.054;15.408;2023-05-18T02:20:00;1.0;;;0.8;;
23252;SDS011;11795;47.054;15.408;2023-05-18T02:22:00;1.0;;;0.8;;
23252;SDS011;11795;47.054;15.408;2023-05-18T02:24:00;1.6;;;1.0;;
23252;SDS011;11795;47.054;15.408;2023-05-18T02:26:00;1.6;;;1.0;;
23252;SDS011;11795;47.054;15.408;2023-05-18T02:28:00;2.1;;;1.0;;
23252;SDS011;11795;47.054;15.408;2023-05-18T02:30:02;2.1;;;1.0;;
23252;SDS011;11795;47.054;15.408;2023-05-18T02:32:00;2.1;;;1.0;;
23252;SDS011;11795;47.054;15.408;2023-05-18T02:34:00;1.5;;;1.0;;
23252;SDS011;11795;47.054;15.408;2023-05-18T02:36:02;1.5;;;1.0;;
23252;SDS011;11795;47.054;15.408;2023-05-18T02:38:01;1.7;;;1.1;;
23252;SDS011;11795;47.054;15.408;2023-05-18T02:40:00;1.7;;;1.1;;
23252;SDS011;11795;47.054;15.408;2023-05-18T02:42:00;1.7;;;1.1;;
23252;SDS011;11795;47.054;15.408;2023-05-18T02:44:01;1.7;;;1.2;;
23252;SDS011;11795;47.054;15.408;2023-05-18T02:46:00;1.7;;;1.2;;
23252;SDS011;11795;47.054;15.408;2023-05-18T02:48:00;1.9;;;1.3;;
23252;SDS011;11795;47.054;15.408;2023-05-18T02:50:00;1.9;;;1.3;;
23252;SDS011;11795;47.054;15.408;2023-05-18T02:52:00;1.9;;;1.3;;
23252;SDS011;11795;47.054;15.408;2023-05-18T02:54:00;1.8;;;1.2;;
23252;SDS011;11795;47.054;15.408;2023-05-18T02:56:02;1.8;;;1.2;;
23252;SDS011;11795;47.054;15.408;2023-05-18T02:58:01;1.9;;;1.3;;
23252;SDS011;11795;47.054;15.408;2023-05-18T03:00:00;1.9;;;1.3;;
23252;SDS011;11795;47.054;15.408;2023-05-18T03:02:00;1.9;;;1.3;;
23252;SDS011;11795;47.054;15.408;2023-05-18T03:04:00;2.9;;;1.5;;
23252;SDS011;11795;47.054;15.408;2023-05-18T03:06:01;2.9;;;1.5;;
23252;SDS011;11795;47.054;15.408;2023-05-18T03:08:01;1.4;;;1.3;;
23252;SDS011;11795;47.054;15.408;2023-05-18T03:10:01;1.4;;;1.3;;
23252;SDS011;11795;47.054;15.408;2023-05-18T03:12:00;1.4;;;1.3;;
23252;SDS011;11795;47.054;15.408;2023-05-18T03:14:00;2.3;;;1.4;;
23252;SDS011;11795;47.054;15.408;2023-05-18T03:16:00;2.3;;;1.4;;
23252;SDS011;11795;47.054;15.408;2023-05-18T03:18:00;2.0;;;1.3;;
23252;SDS011;11795;47.054;15.408;2023-05-18T03:20:03;2.0;;;1.3;;
23252;SDS011;11795;47.054;15.408;2023-05-18T03:22:00;2.0;;;1.3;;
23252;SDS011;11795;47.054;15.408;2023-05-18T03:24:00;2.1;;;1.5;;
23252;SDS011;11795;47.054;15.408;2023-05-18T03:26:02;2.1;;;1.5;;
23252;SDS011;11795;47.054;15.408;2023-05-18T03:28:00;2.3;;;1.6;;
23252;SDS011;11795;47.054;15.408;2023-05-18T03:30:00;2.3;;;1.6;;
23252;SDS011;11795;47.054;15.408;2023-05-18T03:32:00;2.3;;;1.6;;
23252;SDS011;11795;47.054;15.408;2023-05-18T03:34:00;2.1;;;1.4;;
23252;SDS011;11795;47.054;15.408;2023-05-18T03:36:01;2.1;;;1.4;;
23252;SDS011;11795;47.054;15.408;2023-05-18T03:38:00;2.6;;;1.4;;
23252;SDS011;11795;47.054;15.408;2023-05-18T03:40:07;2.6;;;1.4;;
23252;SDS011;11795;47.054;15.408;2023-05-18T03:42:01;2.6;;;1.4;;
23252;SDS011;11795;47.054;15.408;2023-05-18T03:44:00;2.4;;;1.5;;
23252;SDS011;11795;47.054;15.408;2023-05-18T03:46:00;2.4;;;1.5;;
23252;SDS011;11795;47.054;15.408;2023-05-18T03:48:00;2.5;;;1.6;;
23252;SDS011;11795;47.054;15.408;2023-05-18T03:50:00;2.5;;;1.6;;
23252;SDS011;11795;47.054;15.408;2023-05-18T03:52:02;2.5;;;1.6;;
23252;SDS011;11795;47.054;15.408;2023-05-18T03:54:00;2.8;;;1.7;;
23252;SDS011;11795;47.054;15.408;2023-05-18T03:56:00;2.8;;;1.7;;
23252;SDS011;11795;47.054;15.408;2023-05-18T03:58:00;2.1;;;1.5;;
23252;SDS011;11795;47.054;15.408;2023-05-18T04:00:00;2.1;;;1.5;;
23252;SDS011;11795;47.054;15.408;2023-05-18T04:02:00;2.1;;;1.5;;
23252;SDS011;11795;47.054;15.408;2023-05-18T04:04:00;2.7;;;1.5;;
23252;SDS011;11795;47.054;15.408;2023-05-18T04:06:00;2.7;;;1.5;;
23252;SDS011;11795;47.054;15.408;2023-05-18T04:08:00;2.9;;;1.6;;
23252;SDS011;11795;47.054;15.408;2023-05-18T04:10:00;2.9;;;1.6;;
23252;SDS011;11795;47.054;15.408;2023-05-18T04:12:02;2.9;;;1.6;;
23252;SDS011;11795;47.054;15.408;2023-05-18T04:14:00;3.3;;;1.6;;
23252;SDS011;11795;47.054;15.408;2023-05-18T04:16:02;3.3;;;1.6;;
23252;SDS011;11795;47.054;15.408;2023-05-18T04:18:01;2.4;;;1.3;;
23252;SDS011;11795;47.054;15.408;2023-05-18T04:20:04;2.4;;;1.3;;
23252;SDS011;11795;47.054;15.408;2023-05-18T04:22:04;2.4;;;1.3;;
23252;SDS011;11795;47.054;15.408;2023-05-18T04:24:06;1.8;;;1.3;;
23252;SDS011;11795;47.054;15.408;2023-05-18T04:26:00;1.8;;;1.3;;
23252;SDS011;11795;47.054;15.408;2023-05-18T04:28:00;1.9;;;1.4;;
23252;SDS011;11795;47.054;15.408;2023-05-18T04:30:01;1.9;;;1.4;;
23252;SDS011;11795;47.054;15.408;2023-05-18T04:32:00;1.9;;;1.4;;
23252;SDS011;11795;47.054;15.408;2023-05-18T04:34:00;1.9;;;1.3;;
23252;SDS011;11795;47.054;15.408;2023-05-18T04:36:04;1.9;;;1.3;;
23252;SDS011;11795;47.054;15.408;2023-05-18T04:38:01;2.1;;;1.3;;
23252;SDS011;11795;47.054;15.408;2023-05-18T04:40:01;2.1;;;1.3;;
23252;SDS011;11795;47.054;15.408;2023-05-18T04:42:00;2.1;;;1.3;;
23252;SDS011;11795;47.054;15.408;2023-05-18T04:44:01;1.6;;;1.2;;
23252;SDS011;11795;47.054;15.408;2023-05-18T04:46:00;1.6;;;1.2;;
23252;SDS011;11795;47.054;15.408;2023-05-18T04:48:00;1.3;;;1.2;;
23252;SDS011;11795;47.054;15.408;2023-05-18T04:50:01;1.3;;;1.2;;
23252;SDS011;11795;47.054;15.408;2023-05-18T04:52:00;1.3;;;1.2;;
23252;SDS011;11795;47.054;15.408;2023-05-18T04:54:02;1.8;;;1.2;;
23252;SDS011;11795;47.054;15.408;2023-05-18T04:56:00;1.8;;;1.2;;
23252;SDS011;11795;47.054;15.408;2023-05-18T04:58:00;2.7;;;1.2;;
23252;SDS011;11795;47.054;15.408;2023-05-18T05:00:01;2.7;;;1.2;;
23252;SDS011;11795;47.054;15.408;2023-05-18T05:02:00;2.7;;;1.2;;
23252;SDS011;11795;47.054;15.408;2023-05-18T05:04:00;1.3;;;1.0;;
23252;SDS011;11795;47.054;15.408;2023-05-18T05:06:00;1.3;;;1.0;;
23252;SDS011;11795;47.054;15.408;2023-05-18T05:08:00;1.4;;;1.1;;
23252;SDS011;11795;47.054;15.408;2023-05-18T05:10:00;1.4;;;1.1;;
23252;SDS011;11795;47.054;15.408;2023-05-18T05:12:01;1.4;;;1.1;;
23252;SDS011;11795;47.054;15.408;2023-05-18T05:14:00;1.4;;;1.0;;
23252;SDS011;11795;47.054;15.408;2023-05-18T05:16:00;1.4;;;1.0;;
23252;SDS011;11795;47.054;15.408;2023-05-18T05:18:00;1.4;;;1.0;;
23252;SDS011;11795;47.054;15.408;2023-05-18T05:20:00;2.4;;;1.1;;
23252;SDS011;11795;47.054;15.408;2023-05-18T05:22:00;2.4;;;1.1;;
23252;SDS011;11795;47.054;15.408;2023-05-18T05:24:04;1.4;;;0.8;;
23252;SDS011;11795;47.054;15.408;2023-05-18T05:26:00;1.4;;;0.8;;
23252;SDS011;11795;47.054;15.408;2023-05-18T05:28:00;1.4;;;0.8;;
23252;SDS011;11795;47.054;15.408;2023-05-18T05:30:00;1.8;;;1.0;;
23252;SDS011;11795;47.054;15.408;2023-05-18T05:32:00;1.8;;;1.0;;
23252;SDS011;11795;47.054;15.408;2023-05-18T05:34:00;1.3;;;0.9;;
23252;SDS011;11795;47.054;15.408;2023-05-18T05:36:00;1.3;;;0.9;;
23252;SDS011;11795;47.054;15.408;2023-05-18T05:38:00;1.3;;;0.9;;
23252;SDS011;11795;47.054;15.408;2023-05-18T05:40:00;1.7;;;1.0;;
23252;SDS011;11795;47.054;15.408;2023-05-18T05:42:00;1.7;;;1.0;;
23252;SDS011;11795;47.054;15.408;2023-05-18T05:44:00;1.2;;;0.8;;
23252;SDS011;11795;47.054;15.408;2023-05-18T05:46:00;1.2;;;0.8;;
23252;SDS011;11795;47.054;15.408;2023-05-18T05:48:00;1.2;;;0.8;;
23252;SDS011;11795;47.054;15.408;2023-05-18T05:50:00;1.3;;;1.0;;
23252;SDS011;11795;47.054;15.408;2023-05-18T05:52:00;1.3;;;1.0;;
23252;SDS011;11795;47.054;15.408;2023-05-18T05:54:00;1.8;;;0.8;;
23252;SDS011;11795;47.054;15.408;2023-05-18T05:56:00;1.8;;;0.8;;
23252;SDS011;11795;47.054;15.408;2023-05-18T05:58:00;1.8;;;0.8;;
23252;SDS011;11795;47.054;15.408;2023-05-18T06:00:00;1.4;;;0.8;;
23252;SDS011;11795;47.054;15.408;2023-05-18T06:02:01;1.4;;;0.8;;
23252;SDS011;11795;47.054;15.408;2023-05-18T06:04:00;1.0;;;0.8;;
23252;SDS011;11795;47.054;15.408;2023-05-18T06:06:00;1.0;;;0.8;;
23252;SDS011;11795;47.054;15.408;2023-05-18T06:08:00;1.0;;;0.8;;
23252;SDS011;11795;47.054;15.408;2023-05-18T06:10:00;1.2;;;0.9;;
23252;SDS011;11795;47.054;15.408;2023-05-18T06:12:00;1.2;;;0.9;;
23252;SDS011;11795;47.054;15.408;2023-05-18T06:14:00;1.2;;;0.9;;
23252;SDS011;11795;47.054;15.408;2023-05-18T06:16:00;1.2;;;0.9;;
23252;SDS011;11795;47.054;15.408;2023-05-18T06:18:00;1.2;;;0.9;;
23252;SDS011;11795;47.054;15.408;2023-05-18T06:20:00;1.1;;;0.7;;
23252;SDS011;11795;47.054;15.408;2023-05-18T06:22:00;1.1;;;0.7;;
23252;SDS011;11795;47.054;15.408;2023-05-18T06:24:00;1.1;;;0.7;;
23252;SDS011;11795;47.054;15.408;2023-05-18T06:26:00;1.1;;;0.7;;
23252;SDS011;11795;47.054;15.408;2023-05-18T06:28:00;1.1;;;0.7;;
23252;SDS011;11795;47.054;15.408;2023-05-18T06:30:00;1.2;;;0.6;;
23252;SDS011;11795;47.054;15.408;2023-05-18T06:32:00;1.2;;;0.6;;
23252;SDS011;11795;47.054;15.408;2023-05-18T06:34:00;1.9;;;0.6;;
23252;SDS011;11795;47.054;15.408;2023-05-18T06:36:00;1.9;;;0.6;;
23252;SDS011;11795;47.054;15.408;2023-05-18T06:38:00;1.9;;;0.6;;
23252;SDS011;11795;47.054;15.408;2023-05-18T06:40:01;1.3;;;0.6;;
23252;SDS011;11795;47.054;15.408;2023-05-18T06:42:00;1.3;;;0.6;;
23252;SDS011;11795;47.054;15.408;2023-05-18T06:44:01;0.9;;;0.6;;
23252;SDS011;11795;47.054;15.408;2023-05-18T06:46:00;0.9;;;0.6;;
23252;SDS011;11795;47.054;15.408;2023-05-18T06:48:00;0.9;;;0.6;;
23252;SDS011;11795;47.054;15.408;2023-05-18T06:50:00;1.4;;;0.7;;
23252;SDS011;11795;47.054;15.408;2023-05-18T06:52:00;1.4;;;0.7;;
23252;SDS011;11795;47.054;15.408;2023-05-18T06:54:00;1.7;;;0.8;;
23252;SDS011;11795;47.054;15.408;2023-05-18T06:56:00;1.7;;;0.8;;
23252;SDS011;11795;47.054;15.408;2023-05-18T06:58:01;1.7;;;0.8;;
23252;SDS011;11795;47.054;15.408;2023-05-18T07:00:00;1.5;;;0.5;;
23252;SDS011;11795;47.054;15.408;2023-05-18T07:02:00;1.5;;;0.5;;
23252;SDS011;11795;47.054;15.408;2023-05-18T07:04:01;1.1;;;0.7;;
23252;SDS011;11795;47.054;15.408;2023-05-18T07:06:01;1.1;;;0.7;;
23252;SDS011;11795;47.054;15.408;2023-05-18T07:08:00;1.1;;;0.7;;
23252;SDS011;11795;47.054;15.408;2023-05-18T07:10:00;1.6;;;0.7;;
23252;SDS011;11795;47.054;15.408;2023-05-18T07:12:00;1.6;;;0.7;;
23252;SDS011;11795;47.054;15.408;2023-05-18T07:14:00;1.1;;;0.8;;
23252;SDS011;11795;47.054;15.408;2023-05-18T07:16:00;1.1;;;0.8;;
23252;SDS011;11795;47.054;15.408;2023-05-18T07:18:00;1.1;;;0.8;;
23252;SDS011;11795;47.054;15.408;2023-05-18T07:20:00;1.2;;;0.7;;
23252;SDS011;11795;47.054;15.408;2023-05-18T07:22:00;1.2;;;0.7;;
23252;SDS011;11795;47.054;15.408;2023-05-18T07:24:00;0.7;;;0.6;;
23252;SDS011;11795;47.054;15.408;2023-05-18T07:26:00;0.7;;;0.6;;
23252;SDS011;11795;47.054;15.408;2023-05-18T07:28:00;0.7;;;0.6;;
23252;SDS011;11795;47.054;15.408;2023-05-18T07:30:00;1.1;;;0.7;;
23252;SDS011;11795;47.054;15.408;2023-05-18T07:32:00;1.1;;;0.7;;
23252;SDS011;11795;47.054;15.408;2023-05-18T07:34:00;1.3;;;0.6;;
23252;SDS011;11795;47.054;15.408;2023-05-18T07:36:00;1.3;;;0.6;;
23252;SDS011;11795;47.054;15.408;2023-05-18T07:38:00;1.3;;;0.6;;
23252;SDS011;11795;47.054;15.408;2023-05-18T07:40:00;0.9;;;0.7;;
23252;SDS011;11795;47.054;15.408;2023-05-18T07:42:01;0.9;;;0.7;;
23252;SDS011;11795;47.054;15.408;2023-05-18T07:44:00;1.5;;;0.6;;
23252;SDS011;11795;47.054;15.408;2023-05-18T07:46:00;1.5;;;0.6;;
23252;SDS011;11795;47.054;15.408;2023-05-18T07:48:00;1.5;;;0.6;;
23252;SDS011;11795;47.054;15.408;2023-05-18T07:50:00;0.7;;;0.5;;
23252;SDS011;11795;47.054;15.408;2023-05-18T07:52:01;0.7;;;0.5;;
23252;SDS011;11795;47.054;15.408;2023-05-18T07:54:00;0.8;;;0.6;;
23252;SDS011;11795;47.054;15.408;2023-05-18T07:56:00;0.8;;;0.6;;
23252;SDS011;11795;47.054;15.408;2023-05-18T07:58:00;0.8;;;0.6;;
23252;SDS011;11795;47.054;15.408;2023-05-18T08:00:00;1.0;;;0.7;;
23252;SDS011;11795;47.054;15.408;2023-05-18T08:02:01;1.0;;;0.7;;
23252;SDS011;11795;47.054;15.408;2023-05-18T08:04:00;1.2;;;0.6;;
23252;SDS011;11795;47.054;15.408;2023-05-18T08:06:00;1.2;;;0.6;;
23252;SDS011;11795;47.054;15.408;2023-05-18T08:08:01;1.2;;;0.6;;
23252;SDS011;11795;47.054;15.408;2023-05-18T08:10:00;0.9;;;0.7;;
23252;SDS011;11795;47.054;15.408;2023-05-18T08:12:00;0.9;;;0.7;;
23252;SDS011;11795;47.054;15.408;2023-05-18T08:14:00;1.8;;;0.7;;
23252;SDS011;11795;47.054;15.408;2023-05-18T08:16:00;1.8;;;0.7;;
23252;SDS011;11795;47.054;15.408;2023-05-18T08:18:00;1.8;;;0.7;;
23252;SDS011;11795;47.054;15.408;2023-05-18T08:20:00;0.8;;;0.6;;
23252;SDS011;11795;47.054;15.408;2023-05-18T08:22:00;0.8;;;0.6;;
23252;SDS011;11795;47.054;15.408;2023-05-18T08:24:02;0.6;;;0.5;;
23252;SDS011;11795;47.054;15.408;2023-05-18T08:26:02;0.6;;;0.5;;
23252;SDS011;11795;47.054;15.408;2023-05-18T08:28:00;0.6;;;0.5;;
23252;SDS011;11795;47.054;15.408;2023-05-18T08:30:00;0.8;;;0.5;;
23252;SDS011;11795;47.054;15.408;2023-05-18T08:32:00;0.8;;;0.5;;
23252;SDS011;11795;47.054;15.408;2023-05-18T08:34:00;0.6;;;0.6;;
23252;SDS011;11795;47.054;15.408;2023-05-18T08:36:00;0.6;;;0.6;;
23252;SDS011;11795;47.054;15.408;2023-05-18T08:38:00;0.6;;;0.6;;
23252;SDS011;11795;47.054;15.408;2023-05-18T08:40:00;1.1;;;0.6;;
23252;SDS011;11795;47.054;15.408;2023-05-18T08:42:01;1.1;;;0.6;;
23252;SDS011;11795;47.054;15.408;2023-05-18T08:44:01;0.7;;;0.5;;
23252;SDS011;11795;47.054;15.408;2023-05-18T08:46:02;0.7;;;0.5;;
23252;SDS011;11795;47.054;15.408;2023-05-18T08:48:00;0.7;;;0.5;;
23252;SDS011;11795;47.054;15.408;2023-05-18T08:50:00;0.6;;;0.4;;
23252;SDS011;11795;47.054;15.408;2023-05-18T08:52:02;0.6;;;0.4;;
23252;SDS011;11795;47.054;15.408;2023-05-18T08:54:00;0.6;;;0.4;;
23252;SDS011;11795;47.054;15.408;2023-05-18T08:56:00;0.6;;;0.4;;
23252;SDS011;11795;47.054;15.408;2023-05-18T08:58:00;0.6;;;0.4;;
23252;SDS011;11795;47.054;15.408;2023-05-18T09:00:00;1.0;;;0.5;;
23252;SDS011;11795;47.054;15.408;2023-05-18T09:02:00;1.0;;;0.5;;
23252;SDS011;11795;47.054;15.408;2023-05-18T09:04:00;1.1;;;0.4;;
23252;SDS011;11795;47.054;15.408;2023-05-18T09:06:02;1.1;;;0.4;;
23252;SDS011;11795;47.054;15.408;2023-05-18T09:08:00;1.1;;;0.4;;
23252;SDS011;11795;47.054;15.408;2023-05-18T09:10:00;0.6;;;0.4;;
23252;SDS011;11795;47.054;15.408;2023-05-18T09:12:00;0.6;;;0.4;;
23252;SDS011;11795;47.054;15.408;2023-05-18T09:14:00;0.5;;;0.5;;
23252;SDS011;11795;47.054;15.408;2023-05-18T09:16:00;0.5;;;0.5;;
23252;SDS011;11795;47.054;15.408;2023-05-18T09:18:00;0.5;;;0.5;;
23252;SDS011;11795;47.054;15.408;2023-05-18T09:20:00;0.6;;;0.5;;
23252;SDS011;11795;47.054;15.408;2023-05-18T09:22:00;0.6;;;0.5;;
23252;SDS011;11795;47.054;15.408;2023-05-18T09:24:00;0.5;;;0.4;;
23252;SDS011;11795;47.054;15.408;2023-05-18T09:26:00;0.5;;;0.4;;
23252;SDS011;11795;47.054;15.408;2023-05-18T09:28:01;0.5;;;0.4;;
23252;SDS011;11795;47.054;15.408;2023-05-18T09:30:00;0.6;;;0.5;;
23252;SDS011;11795;47.054;15.408;2023-05-18T09:32:00;0.6;;;0.5;;
23252;SDS011;11795;47.054;15.408;2023-05-18T09:34:00;0.9;;;0.4;;
23252;SDS011;11795;47.054;15.408;2023-05-18T09:36:00;0.9;;;0.4;;
23252;SDS011;11795;47.054;15.408;2023-05-18T09:38:02;0.9;;;0.4;;
23252;SDS011;11795;47.054;15.408;2023-05-18T09:40:00;0.5;;;0.4;;
23252;SDS011;11795;47.054;15.408;2023-05-18T09:42:01;0.5;;;0.4;;
23252;SDS011;11795;47.054;15.408;2023-05-18T09:44:04;0.5;;;0.4;;
23252;SDS011;11795;47.054;15.408;2023-05-18T09:46:00;0.5;;;0.4;;
23252;SDS011;11795;47.054;15.408;2023-05-18T09:48:00;0.5;;;0.4;;
23252;SDS011;11795;47.054;15.408;2023-05-18T09:50:00;0.9;;;0.4;;
23252;SDS011;11795;47.054;15.408;2023-05-18T09:52:00;0.9;;;0.4;;
23252;SDS011;11795;47.054;15.408;2023-05-18T09:54:04;1.0;;;0.4;;
23252;SDS011;11795;47.054;15.408;2023-05-18T09:56:00;1.0;;;0.4;;
23252;SDS011;11795;47.054;15.408;2023-05-18T09:58:02;1.0;;;0.4;;
23252;SDS011;11795;47.054;15.408;2023-05-18T10:00:02;0.7;;;0.4;;
23252;SDS011;11795;47.054;15.408;2023-05-18T10:02:01;0.7;;;0.4;;
23252;SDS011;11795;47.054;15.408;2023-05-18T10:04:01;0.7;;;0.4;;
23252;SDS011;11795;47.054;15.408;2023-05-18T10:06:02;0.7;;;0.4;;
23252;SDS011;11795;47.054;15.408;2023-05-18T10:08:00;0.7;;;0.4;;
23252;SDS011;11795;47.054;15.408;2023-05-18T10:10:01;0.5;;;0.5;;
23252;SDS011;11795;47.054;15.408;2023-05-18T10:12:01;0.5;;;0.5;;
23252;SDS011;11795;47.054;15.408;2023-05-18T10:14:00;0.8;;;0.5;;
23252;SDS011;11795;47.054;15.408;2023-05-18T10:16:01;0.8;;;0.5;;
23252;SDS011;11795;47.054;15.408;2023-05-18T10:18:00;0.8;;;0.5;;
23252;SDS011;11795;47.054;15.408;2023-05-18T10:20:00;1.0;;;0.5;;
23252;SDS011;11795;47.054;15.408;2023-05-18T10:22:00;1.0;;;0.5;;
23252;SDS011;11795;47.054;15.408;2023-05-18T10:24:01;0.6;;;0.5;;
23252;SDS011;11795;47.054;15.408;2023-05-18T10:26:00;0.6;;;0.5;;
23252;SDS011;11795;47.054;15.408;2023-05-18T10:28:01;0.6;;;0.5;;
23252;SDS011;11795;47.054;15.408;2023-05-18T10:30:03;1.1;;;0.4;;
23252;SDS011;11795;47.054;15.408;2023-05-18T10:32:02;1.1;;;0.4;;
23252;SDS011;11795;47.054;15.408;2023-05-18T10:34:00;1.0;;;0.5;;
23252;SDS011;11795;47.054;15.408;2023-05-18T10:36:00;1.0;;;0.5;;
23252;SDS011;11795;47.054;15.408;2023-05-18T10:38:00;1.0;;;0.5;;
23252;SDS011;11795;47.054;15.408;2023-05-18T10:40:00;0.8;;;0.4;;
23252;SDS011;11795;47.054;15.408;2023-05-18T10:42:00;0.8;;;0.4;;
23252;SDS011;11795;47.054;15.408;2023-05-18T10:44:03;0.8;;;0.5;;
23252;SDS011;11795;47.054;15.408;2023-05-18T10:46:00;0.8;;;0.5;;
23252;SDS011;11795;47.054;15.408;2023-05-18T10:48:01;0.8;;;0.5;;
23252;SDS011;11795;47.054;15.408;2023-05-18T10:50:00;0.5;;;0.5;;
23252;SDS011;11795;47.054;15.408;2023-05-18T10:52:00;0.5;;;0.5;;
23252;SDS011;11795;47.054;15.408;2023-05-18T10:54:07;0.6;;;0.5;;
23252;SDS011;11795;47.054;15.408;2023-05-18T10:56:01;0.6;;;0.5;;
23252;SDS011;11795;47.054;15.408;2023-05-18T10:58:02;0.6;;;0.5;;
23252;SDS011;11795;47.054;15.408;2023-05-18T11:00:01;1.0;;;0.5;;
23252;SDS011;11795;47.054;15.408;2023-05-18T11:02:00;1.0;;;0.5;;
23252;SDS011;11795;47.054;15.408;2023-05-18T11:04:00;1.0;;;0.5;;
23252;SDS011;11795;47.054;15.408;2023-05-18T11:06:02;1.1;;;0.7;;
23252;SDS011;11795;47.054;15.408;2023-05-18T11:08:01;1.1;;;0.7;;
23252;SDS011;11795;47.054;15.408;2023-05-18T11:10:00;0.8;;;0.6;;
23252;SDS011;11795;47.054;15.408;2023-05-18T11:12:00;0.8;;;0.6;;
23252;SDS011;11795;47.054;15.408;2023-05-18T11:14:00;0.8;;;0.6;;
23252;SDS011;11795;47.054;15.408;2023-05-18T11:16:01;0.7;;;0.5;;
23252;SDS011;11795;47.054;15.408;2023-05-18T11:22:09;0.6;;;0.5;;
23252;SDS011;11795;47.054;15.408;2023-05-18T11:26:02;0.9;;;0.7;;
23252;SDS011;11795;47.054;15.408;2023-05-18T11:28:01;0.9;;;0.7;;
23252;SDS011;11795;47.054;15.408;2023-05-18T11:30:00;0.6;;;0.5;;
23252;SDS011;11795;47.054;15.408;2023-05-18T11:32:00;0.6;;;0.5;;
23252;SDS011;11795;47.054;15.408;2023-05-18T11:34:02;0.6;;;0.5;;
23252;SDS011;11795;47.054;15.408;2023-05-18T11:36:02;0.4;;;0.4;;
23252;SDS011;11795;47.054;15.408;2023-05-18T11:38:05;0.4;;;0.4;;
23252;SDS011;11795;47.054;15.408;2023-05-18T11:40:00;0.7;;;0.6;;
23252;SDS011;11795;47.054;15.408;2023-05-18T11:42:00;0.7;;;0.6;;
23252;SDS011;11795;47.054;15.408;2023-05-18T11:44:04;0.7;;;0.6;;
23252;SDS011;11795;47.054;15.408;2023-05-18T11:46:00;1.1;;;0.6;;
23252;SDS011;11795;47.054;15.408;2023-05-18T11:48:00;1.1;;;0.6;;
23252;SDS011;11795;47.054;15.408;2023-05-18T11:50:00;0.6;;;0.5;;
23252;SDS011;11795;47.054;15.408;2023-05-18T11:52:02;0.6;;;0.5;;
23252;SDS011;11795;47.054;15.408;2023-05-18T11:54:00;0.6;;;0.5;;
23252;SDS011;11795;47.054;15.408;2023-05-18T11:56:00;0.5;;;0.5;;
23252;SDS011;11795;47.054;15.408;2023-05-18T11:58:00;0.5;;;0.5;;
23252;SDS011;11795;47.054;15.408;2023-05-18T12:00:01;0.9;;;0.7;;
23252;SDS011;11795;47.054;15.408;2023-05-18T12:02:00;0.9;;;0.7;;
23252;SDS011;11795;47.054;15.408;2023-05-18T12:04:00;0.9;;;0.7;;
23252;SDS011;11795;47.054;15.408;2023-05-18T12:06:00;0.6;;;0.6;;
23252;SDS011;11795;47.054;15.408;2023-05-18T12:08:00;0.6;;;0.6;;
23252;SDS011;11795;47.054;15.408;2023-05-18T12:10:00;1.4;;;1.0;;
23252;SDS011;11795;47.054;15.408;2023-05-18T12:12:00;1.4;;;1.0;;
23252;SDS011;11795;47.054;15.408;2023-05-18T12:14:00;1.4;;;1.0;;
23252;SDS011;11795;47.054;15.408;2023-05-18T12:16:00;1.0;;;0.7;;
23252;SDS011;11795;47.054;15.408;2023-05-18T12:18:00;1.0;;;0.7;;
23252;SDS011;11795;47.054;15.408;2023-05-18T12:20:00;0.7;;;0.7;;